Time;durP1;ratioP1;P1;durP2;ratioP2;P2;SDS_P1;SDS_P2;PMS_P1;PMS_P2;Temp;Humidity;BMP_temperature;BMP_pressure;BME280_temperature;BME280_humidity;BME280_pressure;Samples;Min_cycle;Max_cycle;Signal;HPM_P1;HPM_P2
2023/08/13 00:00:06;;;;;;;9.83;9.10;;;20.20;99.90;;;;;;5067170;28;20192;-69
2023/08/13 00:02:32;;;;;;;15.70;9.13;;;20.20;99.90;;;;;;5068004;28;20539;-69
2023/08/13 00:04:58;;;;;;;8.57;7.90;;;20.20;99.90;;;;;;5058590;28;20431;-69
2023/08/13 00:07:23;;;;;;;9.07;8.27;;;20.20;99.90;;;;;;5058910;28;20181;-69
2023/08/13 00:09:49;;;;;;;9.80;8.80;;;20.20;99.90;;;;;;5053718;28;20189;-69
2023/08/13 00:12:14;;;;;;;8.50;7.80;;;20.20;99.90;;;;;;5054697;28;20169;-69
2023/08/13 00:14:40;;;;;;;12.37;9.03;;;20.10;99.90;;;;;;5054683;28;20603;-69
2023/08/13 00:17:05;;;;;;;8.93;8.23;;;20.00;99.90;;;;;;5054691;28;20573;-69
2023/08/13 00:19:31;;;;;;;7.63;6.93;;;20.00;99.90;;;;;;5053777;28;20217;-69
2023/08/13 00:21:56;;;;;;;8.20;7.40;;;19.90;99.90;;;;;;5053005;28;20235;-69
2023/08/13 00:24:22;;;;;;;9.33;8.53;;;19.90;99.90;;;;;;5054484;28;20211;-69
2023/08/13 00:26:47;;;;;;;9.50;8.70;;;19.80;99.90;;;;;;5054363;28;20177;-69
2023/08/13 00:29:13;;;;;;;10.07;9.27;;;19.80;99.90;;;;;;5053524;28;20170;-69
2023/08/13 00:31:38;;;;;;;8.67;7.97;;;19.80;99.90;;;;;;5054285;28;20679;-69
2023/08/13 00:34:04;;;;;;;10.30;9.23;;;19.70;99.90;;;;;;5054265;28;20527;-69
2023/08/13 00:36:29;;;;;;;10.53;8.40;;;19.70;99.90;;;;;;5054175;28;20251;-69
2023/08/13 00:38:55;;;;;;;8.97;8.17;;;19.70;99.90;;;;;;5048412;28;20178;-69
2023/08/13 00:41:20;;;;;;;8.40;7.63;;;19.70;99.90;;;;;;5053905;28;20182;-69
2023/08/13 00:43:46;;;;;;;8.73;7.90;;;19.70;99.90;;;;;;5054120;28;20184;-69
2023/08/13 00:46:12;;;;;;;13.30;8.83;;;19.60;99.90;;;;;;5054038;28;20176;-69
2023/08/13 00:48:39;;;;;;;12.17;10.10;;;19.60;99.90;;;;;;5053297;28;20232;-69
2023/08/13 00:51:06;;;;;;;8.83;8.20;;;19.60;99.90;;;;;;5053928;28;20189;-69
2023/08/13 00:53:38;;;;;;;9.70;8.70;;;19.60;99.90;;;;;;5053884;28;20493;-69
2023/08/13 00:56:04;;;;;;;8.60;7.87;;;19.60;99.90;;;;;;5051313;28;20479;-69
2023/08/13 00:58:29;;;;;;;7.53;6.80;;;19.60;99.90;;;;;;5052995;28;20424;-69
2023/08/13 01:00:55;;;;;;;9.43;8.63;;;19.70;99.90;;;;;;5053738;28;20185;-69
2023/08/13 01:03:20;;;;;;;8.60;7.90;;;19.60;99.90;;;;;;5053722;28;20181;-69
2023/08/13 01:05:49;;;;;;;9.40;8.50;;;19.60;99.90;;;;;;5053707;28;20834;-69
2023/08/13 01:08:28;;;;;;;9.77;8.93;;;19.50;99.90;;;;;;5052960;28;20530;-69
2023/08/13 01:11:19;;;;;;;11.00;10.10;;;19.50;99.90;;;;;;5052114;28;20443;-69
2023/08/13 01:13:56;;;;;;;9.00;8.10;;;19.50;99.90;;;;;;5045533;28;20439;-69
2023/08/13 01:16:21;;;;;;;8.10;7.50;;;19.50;99.90;;;;;;5053361;28;20452;-69
2023/08/13 01:18:48;;;;;;;9.07;8.17;;;19.50;99.90;;;;;;5051748;28;20777;-69
2023/08/13 01:21:13;;;;;;;8.57;7.90;;;19.50;99.90;;;;;;5053625;28;20720;-69
2023/08/13 01:23:39;;;;;;;7.20;6.70;;;19.40;99.90;;;;;;5053276;28;20424;-69
2023/08/13 01:26:12;;;;;;;8.40;7.07;;;19.40;99.90;;;;;;5053299;28;20170;-69
2023/08/13 01:28:49;;;;;;;7.40;6.90;;;19.40;99.90;;;;;;5044544;28;20243;-69
2023/08/13 01:31:24;;;;;;;8.00;7.30;;;19.40;99.90;;;;;;5052960;28;20440;-69
2023/08/13 01:33:50;;;;;;;8.03;7.33;;;19.40;99.90;;;;;;5053129;28;20411;-69
2023/08/13 01:36:17;;;;;;;10.30;7.50;;;19.40;99.90;;;;;;5053214;28;20463;-69
2023/08/13 01:38:44;;;;;;;7.30;6.60;;;19.40;99.90;;;;;;5052481;28;20805;-69
2023/08/13 01:41:09;;;;;;;8.30;7.70;;;19.30;99.90;;;;;;5052880;28;20438;-69
2023/08/13 01:43:35;;;;;;;6.57;6.13;;;19.40;99.90;;;;;;5052929;28;20416;-69
2023/08/13 01:46:01;;;;;;;9.47;7.93;;;19.30;99.90;;;;;;5050698;28;20191;-69
2023/08/13 01:48:27;;;;;;;8.00;7.20;;;19.30;99.90;;;;;;5051956;28;20541;-69
2023/08/13 01:50:53;;;;;;;6.90;6.40;;;19.30;99.90;;;;;;5052732;28;20444;-69
2023/08/13 01:53:18;;;;;;;8.03;7.10;;;19.30;99.90;;;;;;5052692;28;20420;-69
2023/08/13 01:55:44;;;;;;;7.30;6.80;;;19.30;99.90;;;;;;5052580;28;20212;-69
2023/08/13 01:58:10;;;;;;;8.17;7.03;;;19.40;99.90;;;;;;5052186;28;20173;-69
2023/08/13 02:00:36;;;;;;;8.10;7.50;;;19.40;99.90;;;;;;5052275;28;20189;-69
2023/08/13 02:03:01;;;;;;;7.17;6.47;;;19.50;99.90;;;;;;5050154;28;20797;-69
2023/08/13 02:05:27;;;;;;;7.20;6.63;;;19.50;99.90;;;;;;5052417;28;20619;-69
2023/08/13 02:07:53;;;;;;;7.03;6.43;;;19.50;99.90;;;;;;5052427;28;20223;-69
2023/08/13 02:10:18;;;;;;;7.10;6.50;;;19.50;99.90;;;;;;5051668;28;20308;-69
2023/08/13 02:12:44;;;;;;;8.60;7.80;;;19.50;99.90;;;;;;5052514;28;20169;-69
2023/08/13 02:15:09;;;;;;;8.53;7.60;;;19.50;99.90;;;;;;5052368;28;20704;-69
2023/08/13 02:17:35;;;;;;;7.07;6.57;;;19.50;99.90;;;;;;5052329;28;20166;-69
2023/08/13 02:20:01;;;;;;;7.50;6.90;;;19.50;99.90;;;;;;5041338;28;20204;-69
2023/08/13 02:22:26;;;;;;;8.30;7.60;;;19.50;99.90;;;;;;5052249;28;20169;-69
2023/08/13 02:24:52;;;;;;;7.97;6.77;;;19.50;99.90;;;;;;5052236;28;20412;-69
2023/08/13 02:27:17;;;;;;;7.00;6.30;;;19.60;99.90;;;;;;5052139;28;20249;-69
2023/08/13 02:29:43;;;;;;;9.03;8.23;;;19.60;99.90;;;;;;5051107;28;20201;-69
2023/08/13 02:32:09;;;;;;;8.33;7.73;;;19.60;99.90;;;;;;5052155;28;20180;-69
2023/08/13 02:34:45;;;;;;;7.80;7.10;;;19.60;99.90;;;;;;5052051;28;20786;-69
2023/08/13 02:37:11;;;;;;;8.70;7.97;;;19.60;99.90;;;;;;5045916;28;20602;-69
2023/08/13 02:39:37;;;;;;;7.63;6.93;;;19.60;99.90;;;;;;5051087;28;20463;-69
2023/08/13 02:42:02;;;;;;;8.10;7.30;;;19.60;99.90;;;;;;5052158;28;20262;-69
2023/08/13 02:44:28;;;;;;;8.20;7.10;;;19.70;99.90;;;;;;5050480;28;20669;-69
2023/08/13 02:46:53;;;;;;;8.20;7.50;;;19.70;99.90;;;;;;5050968;28;20181;-69
2023/08/13 02:49:19;;;;;;;7.30;6.50;;;19.80;99.90;;;;;;5051026;28;20604;-69
2023/08/13 02:51:44;;;;;;;7.27;6.77;;;19.90;99.90;;;;;;5051885;28;20201;-69
2023/08/13 02:54:10;;;;;;;7.77;7.17;;;19.90;99.90;;;;;;5046042;28;20177;-69
2023/08/13 02:56:36;;;;;;;6.73;6.13;;;19.80;99.90;;;;;;5051586;28;20198;-69
2023/08/13 02:59:01;;;;;;;7.70;7.10;;;19.80;99.90;;;;;;5051079;28;20534;-69
2023/08/13 03:01:27;;;;;;;9.40;8.50;;;19.80;99.90;;;;;;5045422;28;20237;-69
2023/08/13 03:03:53;;;;;;;8.87;8.07;;;19.80;99.90;;;;;;5051023;28;20166;-69
2023/08/13 03:06:22;;;;;;;8.20;7.50;;;19.90;99.90;;;;;;5052013;28;20602;-69
2023/08/13 03:08:48;;;;;;;7.83;7.23;;;19.90;99.90;;;;;;5051091;28;20420;-69
2023/08/13 03:11:14;;;;;;;7.60;7.00;;;19.90;99.90;;;;;;5046729;28;20452;-69
2023/08/13 03:13:39;;;;;;;8.03;7.43;;;19.90;99.90;;;;;;5051696;28;20177;-69
2023/08/13 03:16:05;;;;;;;8.87;8.17;;;19.90;99.90;;;;;;5051539;28;20190;-69
2023/08/13 03:18:30;;;;;;;7.80;7.20;;;19.90;99.90;;;;;;5050005;28;20181;-69
2023/08/13 03:20:56;;;;;;;8.90;8.03;;;19.90;99.90;;;;;;5051581;28;20200;-69
2023/08/13 03:23:21;;;;;;;8.60;8.00;;;19.90;99.90;;;;;;5051579;28;20653;-69
2023/08/13 03:25:47;;;;;;;8.20;7.70;;;19.90;99.90;;;;;;5050395;28;20672;-69
2023/08/13 03:28:12;;;;;;;8.33;7.63;;;19.90;99.90;;;;;;5050800;28;20170;-69
2023/08/13 03:30:38;;;;;;;8.23;7.10;;;19.90;99.90;;;;;;5051486;28;20230;-69
2023/08/13 03:33:04;;;;;;;8.80;7.17;;;19.90;99.90;;;;;;5051515;28;20170;-69
2023/08/13 03:35:29;;;;;;;8.47;7.77;;;19.90;99.90;;;;;;5051427;28;20193;-69
2023/08/13 03:37:55;;;;;;;8.43;7.67;;;19.90;99.90;;;;;;5051427;28;20174;-69
2023/08/13 03:40:20;;;;;;;8.33;7.63;;;19.90;99.90;;;;;;5050608;28;20565;-69
2023/08/13 03:42:46;;;;;;;8.60;8.00;;;19.90;99.90;;;;;;5043101;28;20655;-69
2023/08/13 03:45:11;;;;;;;9.23;8.40;;;19.90;99.90;;;;;;5055157;28;20520;-69
2023/08/13 03:47:37;;;;;;;7.50;6.90;;;19.90;99.90;;;;;;5055273;28;20220;-69
2023/08/13 03:50:03;;;;;;;8.50;7.80;;;19.90;99.90;;;;;;5054409;28;20216;-69
2023/08/13 03:52:28;;;;;;;8.30;7.60;;;19.90;99.90;;;;;;5055116;28;20508;-69
2023/08/13 03:54:54;;;;;;;7.50;6.90;;;19.90;99.90;;;;;;5054813;28;20949;-69
2023/08/13 03:57:19;;;;;;;7.27;6.77;;;19.80;99.90;;;;;;5055013;28;20176;-69
2023/08/13 03:59:45;;;;;;;8.33;7.73;;;19.80;99.90;;;;;;5044143;28;20224;-69
2023/08/13 04:02:10;;;;;;;7.60;6.90;;;19.70;99.90;;;;;;5054918;28;20166;-69
2023/08/13 04:04:36;;;;;;;7.60;7.00;;;19.80;99.90;;;;;;5054806;28;20173;-69
2023/08/13 04:07:01;;;;;;;7.40;6.80;;;19.80;99.90;;;;;;5054808;28;20261;-69
2023/08/13 04:09:27;;;;;;;8.10;7.13;;;19.80;99.90;;;;;;5053903;28;20185;-69
2023/08/13 04:11:53;;;;;;;8.43;6.87;;;19.80;99.90;;;;;;5054698;28;20178;-69
2023/08/13 04:14:18;;;;;;;7.70;7.10;;;19.90;99.90;;;;;;5052947;28;20246;-69
2023/08/13 04:16:44;;;;;;;7.50;7.00;;;19.80;99.90;;;;;;5048006;28;20202;-69
2023/08/13 04:19:09;;;;;;;10.10;7.50;;;19.80;99.90;;;;;;5053762;28;20181;-69
2023/08/13 04:21:35;;;;;;;8.40;7.60;;;19.80;99.90;;;;;;5054552;28;20170;-69
2023/08/13 04:24:00;;;;;;;8.47;7.63;;;19.80;99.90;;;;;;5054503;28;20177;-69
2023/08/13 04:26:26;;;;;;;11.53;7.03;;;19.80;99.90;;;;;;5054502;28;20181;-71
2023/08/13 04:28:51;;;;;;;7.40;6.90;;;19.70;99.90;;;;;;5053667;28;20175;-71
2023/08/13 04:31:19;;;;;;;7.67;6.83;;;19.80;99.90;;;;;;5052815;28;20210;-69
2023/08/13 04:33:47;;;;;;;7.80;7.10;;;19.80;99.90;;;;;;5054011;28;20173;-69
2023/08/13 04:36:12;;;;;;;9.07;8.37;;;19.90;99.90;;;;;;5054135;28;20456;-69
2023/08/13 04:38:38;;;;;;;8.60;7.90;;;19.90;99.90;;;;;;5053467;28;20937;-69
2023/08/13 04:41:03;;;;;;;7.60;7.00;;;19.90;99.90;;;;;;5054157;28;20611;-69
2023/08/13 04:43:29;;;;;;;9.23;8.53;;;20.00;99.90;;;;;;5054167;28;20180;-69
2023/08/13 04:45:55;;;;;;;9.00;8.10;;;20.00;99.90;;;;;;5054113;28;20178;-69
2023/08/13 04:48:41;;;;;;;8.80;8.10;;;20.00;99.90;;;;;;5051301;28;20188;-69
2023/08/13 04:51:06;;;;;;;9.43;8.70;;;20.00;99.90;;;;;;5046855;28;20447;-69
2023/08/13 04:53:32;;;;;;;9.00;8.33;;;20.00;99.90;;;;;;5053770;28;20426;-69
2023/08/13 04:55:58;;;;;;;10.10;9.20;;;20.00;99.90;;;;;;5053732;28;20209;-69
2023/08/13 04:58:24;;;;;;;8.70;7.90;;;19.90;99.90;;;;;;5053177;28;20166;-69
2023/08/13 05:00:49;;;;;;;10.10;9.30;;;19.90;99.90;;;;;;5053708;28;20431;-69
2023/08/13 05:03:15;;;;;;;8.83;8.23;;;19.90;99.90;;;;;;5053794;28;20170;-69
2023/08/13 05:05:40;;;;;;;8.97;8.20;;;20.00;99.90;;;;;;5045113;28;20182;-69
2023/08/13 05:08:06;;;;;;;9.80;8.90;;;20.00;99.90;;;;;;5053987;28;20200;-69
2023/08/13 05:10:32;;;;;;;10.23;9.40;;;20.00;99.90;;;;;;5052886;28;20202;-69
2023/08/13 05:12:58;;;;;;;12.20;10.00;;;19.90;99.90;;;;;;5053675;28;20177;-69
2023/08/13 05:15:24;;;;;;;9.83;8.80;;;19.90;99.90;;;;;;5053423;28;20463;-69
2023/08/13 05:17:49;;;;;;;10.10;9.10;;;19.90;99.90;;;;;;5053479;28;20257;-69
2023/08/13 05:20:15;;;;;;;10.43;9.60;;;19.80;99.90;;;;;;5052515;28;20189;-69
2023/08/13 05:22:40;;;;;;;10.70;9.70;;;19.80;99.90;;;;;;5050630;28;20178;-69
2023/08/13 05:25:06;;;;;;;9.77;8.87;;;19.80;99.90;;;;;;5053268;28;20178;-69
2023/08/13 05:27:32;;;;;;;10.13;9.13;;;19.80;99.90;;;;;;5053278;28;20220;-69
2023/08/13 05:29:57;;;;;;;10.30;9.50;;;19.80;99.90;;;;;;5052424;28;20436;-69
2023/08/13 05:32:24;;;;;;;10.57;9.80;;;19.70;99.90;;;;;;5053221;28;20547;-69
2023/08/13 05:34:50;;;;;;;10.13;9.20;;;19.70;99.90;;;;;;5051711;28;20596;-69
2023/08/13 05:37:15;;;;;;;11.43;10.43;;;19.70;99.90;;;;;;5053318;28;20420;-69
2023/08/13 05:39:40;;;;;;;10.57;9.67;;;19.70;99.90;;;;;;5048773;28;20204;-69
2023/08/13 05:42:06;;;;;;;10.80;9.90;;;19.80;99.90;;;;;;5052969;28;20544;-69
2023/08/13 05:44:32;;;;;;;10.03;9.13;;;19.90;99.90;;;;;;5052953;28;20169;-69
2023/08/13 05:46:57;;;;;;;9.40;8.57;;;19.80;99.90;;;;;;5052901;28;20169;-69
2023/08/13 05:49:23;;;;;;;9.67;8.77;;;19.80;99.90;;;;;;5052028;28;20182;-69
2023/08/13 05:51:48;;;;;;;10.10;9.10;;;19.80;99.90;;;;;;5052812;28;20188;-69
2023/08/13 05:54:15;;;;;;;9.67;8.97;;;19.90;99.90;;;;;;5052751;28;20165;-69
2023/08/13 05:56:40;;;;;;;10.90;9.23;;;19.90;99.90;;;;;;5047139;28;20197;-69
2023/08/13 05:59:06;;;;;;;10.90;9.90;;;19.90;99.90;;;;;;5051041;28;20497;-69
2023/08/13 06:01:32;;;;;;;10.00;9.10;;;19.90;99.90;;;;;;5052539;28;20172;-69
2023/08/13 06:03:57;;;;;;;9.53;8.83;;;20.00;99.90;;;;;;5052547;28;20219;-69
2023/08/13 06:06:23;;;;;;;10.33;9.53;;;20.00;99.90;;;;;;5051992;28;20593;-69
2023/08/13 06:08:48;;;;;;;11.10;10.10;;;20.00;99.90;;;;;;5051828;28;20200;-69
2023/08/13 06:11:14;;;;;;;10.13;9.33;;;20.00;99.90;;;;;;5052544;28;20498;-70
2023/08/13 06:13:40;;;;;;;10.20;9.30;;;20.00;99.90;;;;;;5046811;28;20177;-69
2023/08/13 06:16:06;;;;;;;10.13;9.10;;;20.10;99.90;;;;;;5052084;28;20190;-69
2023/08/13 06:18:32;;;;;;;13.73;12.43;;;20.00;99.90;;;;;;5051575;28;20416;-69
2023/08/13 06:20:58;;;;;;;12.73;11.53;;;19.90;99.90;;;;;;5052254;28;20185;-69
2023/08/13 06:23:23;;;;;;;11.47;10.30;;;19.90;99.90;;;;;;5052417;28;20423;-69
2023/08/13 06:25:49;;;;;;;11.23;10.43;;;19.90;99.90;;;;;;5052426;28;20256;-69
2023/08/13 06:28:14;;;;;;;11.27;10.37;;;20.00;99.90;;;;;;5050135;28;20573;-69
2023/08/13 06:30:43;;;;;;;11.67;10.70;;;20.10;99.90;;;;;;5048618;28;20570;-69
2023/08/13 06:33:09;;;;;;;11.00;10.10;;;20.10;99.90;;;;;;5052051;28;20177;-69
2023/08/13 06:35:34;;;;;;;10.37;9.47;;;20.20;99.90;;;;;;5052078;28;20451;-69
2023/08/13 06:38:00;;;;;;;8.93;8.23;;;20.10;99.90;;;;;;5052053;28;20611;-69
2023/08/13 06:40:25;;;;;;;10.40;9.03;;;20.10;99.90;;;;;;5051228;28;20186;-68
2023/08/13 06:42:51;;;;;;;10.00;9.03;;;20.10;99.90;;;;;;5051971;28;20197;-69
2023/08/13 06:45:17;;;;;;;14.80;13.57;;;20.00;99.90;;;;;;5052027;28;20263;-69
2023/08/13 06:47:42;;;;;;;11.20;9.80;;;20.00;99.90;;;;;;5039674;28;20257;-69
2023/08/13 06:50:08;;;;;;;11.43;10.07;;;20.00;99.90;;;;;;5051070;28;20201;-69
2023/08/13 06:52:34;;;;;;;11.37;10.37;;;19.90;99.90;;;;;;5051914;28;20256;-69
2023/08/13 06:54:59;;;;;;;11.27;10.33;;;19.90;99.90;;;;;;5051711;28;20464;-69
2023/08/13 06:57:25;;;;;;;11.13;9.70;;;19.90;99.90;;;;;;5051890;28;20253;-69
2023/08/13 06:59:50;;;;;;;12.30;11.37;;;20.00;99.90;;;;;;5051155;28;20667;-68
2023/08/13 07:02:16;;;;;;;12.97;11.67;;;20.00;99.90;;;;;;5051750;28;20172;-69
2023/08/13 07:04:41;;;;;;;11.40;10.50;;;20.10;99.90;;;;;;5044363;28;20213;-69
2023/08/13 07:07:07;;;;;;;19.07;17.33;;;20.20;99.90;;;;;;5051882;28;20185;-69
2023/08/13 07:09:33;;;;;;;11.90;10.90;;;20.30;99.90;;;;;;5050925;28;20270;-69
2023/08/13 07:11:59;;;;;;;11.63;10.50;;;20.40;99.90;;;;;;5051723;28;20661;-69
2023/08/13 07:14:24;;;;;;;11.80;10.70;;;20.40;99.90;;;;;;5051686;28;20424;-69
2023/08/13 07:16:50;;;;;;;13.40;12.30;;;20.40;99.90;;;;;;5052250;28;20663;-70
2023/08/13 07:19:16;;;;;;;10.83;9.90;;;20.40;99.90;;;;;;5054908;28;20168;-69
2023/08/13 07:21:41;;;;;;;9.87;9.17;;;20.40;99.90;;;;;;5048511;28;20185;-69
2023/08/13 07:24:07;;;;;;;10.87;9.83;;;20.50;99.90;;;;;;5055564;28;20180;-69
2023/08/13 07:26:34;;;;;;;9.50;8.70;;;20.50;99.90;;;;;;5055666;28;20213;-69
2023/08/13 07:28:59;;;;;;;9.13;8.43;;;20.50;99.90;;;;;;5054884;28;20638;-69
2023/08/13 07:31:25;;;;;;;9.20;8.47;;;20.50;99.90;;;;;;5055340;28;20467;-69
2023/08/13 07:33:52;;;;;;;9.67;8.30;;;20.50;99.90;;;;;;5055449;28;20284;-69
2023/08/13 07:36:17;;;;;;;9.63;8.83;;;20.50;99.90;;;;;;5055491;28;20205;-69
2023/08/13 07:38:43;;;;;;;9.10;8.30;;;20.60;99.90;;;;;;5046987;28;20447;-69
2023/08/13 07:41:08;;;;;;;8.10;7.40;;;20.70;99.90;;;;;;5055272;28;20543;-69
2023/08/13 07:43:34;;;;;;;9.77;8.63;;;20.60;99.90;;;;;;5055336;28;20176;-69
2023/08/13 07:46:00;;;;;;;8.87;8.10;;;20.60;99.90;;;;;;5055218;28;20176;-69
2023/08/13 07:48:25;;;;;;;8.40;7.67;;;20.70;99.90;;;;;;5054394;28;20174;-69
2023/08/13 07:50:51;;;;;;;7.60;6.90;;;20.70;99.90;;;;;;5055078;28;20189;-69
2023/08/13 07:53:16;;;;;;;8.70;7.90;;;20.90;99.90;;;;;;5055127;28;20166;-69
2023/08/13 07:55:43;;;;;;;7.63;6.80;;;21.20;99.90;;;;;;5047363;28;20612;-69
2023/08/13 07:58:08;;;;;;;8.47;7.23;;;21.50;99.90;;;;;;5054717;28;20667;-69
2023/08/13 08:00:34;;;;;;;7.57;6.83;;;21.70;99.90;;;;;;5053048;28;20450;-69
2023/08/13 08:02:59;;;;;;;6.47;5.93;;;21.80;99.90;;;;;;5054921;28;20177;-69
2023/08/13 08:05:25;;;;;;;6.00;5.40;;;22.00;99.90;;;;;;5054901;28;20189;-69
2023/08/13 08:07:50;;;;;;;6.43;5.93;;;22.10;99.90;;;;;;5054883;28;20174;-69
2023/08/13 08:10:16;;;;;;;5.90;5.50;;;22.30;99.90;;;;;;5053996;28;20553;-69
2023/08/13 08:12:41;;;;;;;6.07;5.60;;;22.50;99.90;;;;;;5049459;28;20281;-69
2023/08/13 08:15:07;;;;;;;6.13;5.63;;;22.50;99.90;;;;;;5054490;28;20181;-69
2023/08/13 08:17:35;;;;;;;6.03;5.43;;;22.80;99.90;;;;;;5054505;28;20165;-69
2023/08/13 08:20:00;;;;;;;6.07;5.63;;;22.90;99.90;;;;;;5053835;28;20182;-69
2023/08/13 08:22:26;;;;;;;5.70;5.23;;;23.00;99.90;;;;;;5054733;28;20451;-69
2023/08/13 08:24:54;;;;;;;6.30;5.70;;;23.10;99.90;;;;;;5054539;28;20166;-69
2023/08/13 08:27:20;;;;;;;6.23;5.73;;;23.30;99.90;;;;;;5054052;28;20201;-69
2023/08/13 08:29:45;;;;;;;6.77;6.23;;;23.50;99.90;;;;;;5043290;28;20496;-69
2023/08/13 08:32:11;;;;;;;7.80;6.63;;;23.40;99.90;;;;;;5048482;28;20213;-69
2023/08/13 08:34:36;;;;;;;9.60;6.27;;;23.80;99.90;;;;;;5051339;28;20269;-69
2023/08/13 08:37:04;;;;;;;7.20;6.43;;;23.90;99.90;;;;;;5054203;28;20197;-69
2023/08/13 08:39:29;;;;;;;7.67;7.00;;;23.90;99.90;;;;;;5053399;28;20188;-69
2023/08/13 08:41:56;;;;;;;11.47;10.27;;;23.80;99.90;;;;;;5054192;28;20933;-69
2023/08/13 08:44:23;;;;;;;7.37;6.67;;;23.70;99.90;;;;;;5054076;28;20174;-69
2023/08/13 08:46:53;;;;;;;7.10;6.50;;;23.50;99.90;;;;;;5047115;28;20530;-69
2023/08/13 08:49:23;;;;;;;6.47;6.00;;;23.40;99.90;;;;;;5053421;28;20773;-69
2023/08/13 08:51:50;;;;;;;11.20;10.17;;;23.80;99.90;;;;;;5054100;28;20470;-69
2023/08/13 08:54:17;;;;;;;9.77;9.00;;;24.00;99.90;;;;;;5054024;28;20420;-69
2023/08/13 08:56:42;;;;;;;6.93;6.33;;;24.20;99.90;;;;;;5053732;28;20471;-69
2023/08/13 08:59:08;;;;;;;6.97;5.67;;;24.20;99.90;;;;;;5052963;28;20435;-69
2023/08/13 09:01:34;;;;;;;6.90;6.30;;;24.10;99.90;;;;;;5053291;28;20177;-69
2023/08/13 09:04:00;;;;;;;6.70;6.10;;;24.20;99.90;;;;;;5045139;28;20174;-69
2023/08/13 09:06:58;;;;;;;6.37;5.83;;;24.20;99.90;;;;;;5053727;28;20420;-69
2023/08/13 09:09:25;;;;;;;7.00;6.33;;;24.20;99.90;;;;;;5052852;28;20419;-69
2023/08/13 09:11:51;;;;;;;7.67;6.97;;;24.20;99.90;;;;;;5053588;28;20916;-69
2023/08/13 09:14:17;;;;;;;6.03;5.53;;;24.20;99.90;;;;;;5053736;28;20841;-69
2023/08/13 09:16:47;;;;;;;5.03;4.70;;;24.50;99.90;;;;;;5053421;28;20487;-69
2023/08/13 09:19:14;;;;;;;7.03;5.53;;;25.10;99.90;;;;;;5047194;28;20792;-69
2023/08/13 09:21:46;;;;;;;5.40;5.10;;;25.90;99.90;;;;;;5051003;28;20412;-69
2023/08/13 09:24:12;;;;;;;7.00;5.90;;;26.30;99.90;;;;;;5053362;28;20496;-69
2023/08/13 09:26:38;;;;;;;7.40;5.97;;;26.50;99.90;;;;;;5053348;28;21000;-69
2023/08/13 09:29:09;;;;;;;6.30;5.70;;;26.70;99.90;;;;;;5052603;28;20251;-69
2023/08/13 09:31:35;;;;;;;5.97;5.37;;;27.10;99.90;;;;;;5053129;28;20427;-69
2023/08/13 09:34:01;;;;;;;6.53;6.03;;;27.50;99.90;;;;;;5053126;28;20416;-69
2023/08/13 09:36:27;;;;;;;5.93;5.37;;;28.10;99.90;;;;;;5046321;28;20225;-70
2023/08/13 09:38:53;;;;;;;5.87;5.37;;;28.50;99.90;;;;;;5051436;28;20435;-70
2023/08/13 09:41:20;;;;;;;6.53;5.93;;;28.80;99.90;;;;;;5052552;28;20798;-70
2023/08/13 09:43:47;;;;;;;6.10;5.50;;;28.90;99.90;;;;;;5052984;28;20193;-70
2023/08/13 09:46:18;;;;;;;6.37;5.90;;;27.90;99.90;;;;;;5051481;28;20493;-69
2023/08/13 09:48:45;;;;;;;6.50;5.93;;;28.00;99.90;;;;;;5052218;28;20818;-70
2023/08/13 09:51:13;;;;;;;6.97;6.47;;;28.40;99.90;;;;;;5052807;28;20439;-70
2023/08/13 09:53:46;;;;;;;7.40;6.70;;;29.00;99.90;;;;;;5045769;28;20448;-69
2023/08/13 09:56:16;;;;;;;5.53;5.03;;;29.50;99.90;;;;;;5052659;28;20464;-69
2023/08/13 09:58:42;;;;;;;6.77;6.07;;;30.40;99.90;;;;;;5052064;28;20435;-69
2023/08/13 10:01:07;;;;;;;5.00;4.60;;;31.30;99.90;;;;;;5052683;28;20432;-70
2023/08/13 10:03:34;;;;;;;5.13;4.80;;;32.60;99.90;;;;;;5052618;28;20288;-70
2023/08/13 10:05:59;;;;;;;5.07;4.67;;;33.80;99.90;;;;;;5053068;28;20364;-70
2023/08/13 10:08:26;;;;;;;5.77;5.27;;;34.10;99.90;;;;;;5051990;28;20531;-70
2023/08/13 10:10:51;;;;;;;5.77;5.17;;;34.20;99.90;;;;;;5045394;28;20232;-70
2023/08/13 10:13:19;;;;;;;6.13;5.73;;;33.20;99.90;;;;;;5051710;28;20531;-70
2023/08/13 10:15:46;;;;;;;5.33;4.93;;;32.20;99.90;;;;;;5052348;28;20232;-70
2023/08/13 10:18:11;;;;;;;5.17;4.70;;;31.70;99.90;;;;;;5051979;28;20422;-70
2023/08/13 10:20:42;;;;;;;6.10;5.60;;;31.40;99.90;;;;;;5052143;28;20436;-70
2023/08/13 10:23:11;;;;;;;7.77;7.10;;;31.50;99.90;;;;;;5052405;28;20208;-70
2023/08/13 10:25:38;;;;;;;5.23;4.93;;;31.90;99.90;;;;;;5052423;28;20416;-70
2023/08/13 10:28:26;;;;;;;6.10;5.60;;;32.00;99.90;;;;;;5046366;28;20519;-70
2023/08/13 10:31:21;;;;;;;5.77;5.20;;;31.90;99.90;;;;;;5050094;28;20469;-70
2023/08/13 10:33:46;;;;;;;5.47;5.07;;;32.50;99.90;;;;;;5052147;28;20936;-70
2023/08/13 10:36:12;;;;;;;5.83;5.30;;;33.70;99.90;;;;;;5052114;28;20459;-70
2023/08/13 10:38:40;;;;;;;6.13;5.77;;;34.10;99.90;;;;;;5051461;28;20580;-70
2023/08/13 10:41:06;;;;;;;5.60;5.20;;;34.20;99.90;;;;;;5052005;28;20190;-70
2023/08/13 10:43:33;;;;;;;5.20;4.90;;;34.00;99.90;;;;;;5052247;28;21003;-70
2023/08/13 10:46:02;;;;;;;9.40;8.63;;;33.70;99.90;;;;;;5043984;28;20180;-71
2023/08/13 10:48:30;;;;;;;5.40;4.90;;;33.80;99.90;;;;;;5051271;28;20871;-70
2023/08/13 10:50:57;;;;;;;5.73;5.23;;;33.50;99.90;;;;;;5051702;28;20444;-70
2023/08/13 10:53:25;;;;;;;5.50;5.10;;;33.40;99.90;;;;;;5051918;28;20424;-70
2023/08/13 10:55:53;;;;;;;5.67;5.23;;;33.30;99.90;;;;;;5051605;28;20518;-70
2023/08/13 10:58:25;;;;;;;5.17;4.77;;;33.50;99.90;;;;;;5048872;28;20523;-70
2023/08/13 11:00:52;;;;;;;5.53;4.97;;;33.50;99.90;;;;;;5042843;28;20460;-70
2023/08/13 11:03:28;;;;;;;8.60;4.50;;;33.60;99.90;;;;;;5046057;28;20511;-70
2023/08/13 11:05:54;;;;;;;5.17;4.73;;;33.60;99.90;;;;;;5050747;28;20848;-70
2023/08/13 11:08:22;;;;;;;5.30;4.87;;;34.10;99.90;;;;;;5047355;22;20529;-72
2023/08/13 11:10:49;;;;;;;5.07;4.73;;;35.30;99.90;;;;;;5011474;28;20457;-72
2023/08/13 11:13:16;;;;;;;4.40;4.10;;;36.10;96.70;;;;;;5011940;28;20425;-72
2023/08/13 11:15:52;;;;;;;6.50;5.10;;;35.90;96.30;;;;;;5011994;28;20453;-72
2023/08/13 11:18:18;;;;;;;5.80;5.30;;;35.00;97.30;;;;;;5011356;28;20433;-72
2023/08/13 11:20:45;;;;;;;5.83;4.73;;;34.30;99.50;;;;;;5012152;28;20948;-73
2023/08/13 11:23:18;;;;;;;4.67;4.37;;;35.60;97.80;;;;;;5012235;28;20442;-73
2023/08/13 11:25:46;;;;;;;6.00;5.47;;;36.70;94.10;;;;;;5012076;28;20445;-72
2023/08/13 11:28:21;;;;;;;5.83;5.43;;;37.00;92.30;;;;;;5010586;28;20459;-72
2023/08/13 11:30:47;;;;;;;5.60;5.10;;;36.20;92.40;;;;;;5011970;28;20417;-72
2023/08/13 11:33:14;;;;;;;5.50;5.00;;;34.80;95.20;;;;;;5012148;28;20432;-72
2023/08/13 11:35:40;;;;;;;5.43;5.03;;;35.00;95.30;;;;;;5012102;28;20457;-73
2023/08/13 11:38:06;;;;;;;5.13;4.73;;;36.40;93.00;;;;;;5011826;28;20441;-73
2023/08/13 11:40:32;;;;;;;4.90;4.57;;;38.20;86.90;;;;;;5011406;28;20417;-73
2023/08/13 11:42:59;;;;;;;6.13;5.63;;;37.40;86.10;;;;;;5011871;28;20479;-72
2023/08/13 11:45:26;;;;;;;5.13;4.50;;;35.60;91.00;;;;;;5010197;28;20437;-72
2023/08/13 11:48:06;;;;;;;5.13;4.73;;;34.70;93.30;;;;;;5011507;28;20453;-72
2023/08/13 11:50:32;;;;;;;5.77;5.30;;;34.10;96.60;;;;;;5009307;28;20865;-72
2023/08/13 11:53:23;;;;;;;5.43;5.03;;;33.20;99.90;;;;;;5011838;28;20434;-72
2023/08/13 11:55:49;;;;;;;6.03;5.53;;;32.10;99.90;;;;;;5007896;28;20222;-72
2023/08/13 11:58:19;;;;;;;6.20;5.77;;;31.50;99.90;;;;;;5010924;28;20438;-72
2023/08/13 12:00:47;;;;;;;5.53;5.03;;;31.20;99.90;;;;;;5011681;28;20183;-72
2023/08/13 12:03:13;;;;;;;5.70;5.20;;;30.30;99.90;;;;;;5012982;28;20425;-72
2023/08/13 12:05:39;;;;;;;6.33;5.73;;;30.00;99.90;;;;;;5014401;28;20971;-72
2023/08/13 12:08:09;;;;;;;5.93;5.50;;;29.80;99.90;;;;;;5014716;28;20520;-72
2023/08/13 12:10:35;;;;;;;5.50;5.10;;;30.40;99.90;;;;;;5014724;28;20258;-72
2023/08/13 12:13:01;;;;;;;5.63;5.13;;;30.50;99.90;;;;;;5015212;28;20417;-72
2023/08/13 12:15:28;;;;;;;6.00;4.40;;;31.00;99.90;;;;;;5014881;28;20865;-72
2023/08/13 12:17:55;;;;;;;5.50;5.10;;;32.90;99.90;;;;;;5014920;28;20178;-73
2023/08/13 12:20:22;;;;;;;8.30;7.30;;;35.40;99.10;;;;;;5014314;28;20425;-73
2023/08/13 12:22:48;;;;;;;5.67;5.27;;;37.40;92.10;;;;;;5014039;28;20433;-73
2023/08/13 12:25:13;;;;;;;5.33;4.93;;;38.60;87.00;;;;;;5014614;28;20433;-73
2023/08/13 12:27:40;;;;;;;6.40;5.90;;;38.70;81.60;;;;;;5014819;28;20437;-72
2023/08/13 12:30:06;;;;;;;4.53;4.13;;;37.70;80.80;;;;;;5014044;28;20171;-72
2023/08/13 12:32:32;;;;;;;5.30;4.80;;;36.30;85.00;;;;;;5014655;28;20509;-72
2023/08/13 12:34:57;;;;;;;6.07;5.60;;;35.10;90.60;;;;;;5014528;28;20563;-72
2023/08/13 12:37:24;;;;;;;4.07;3.87;;;34.40;93.20;;;;;;5014531;28;20182;-72
2023/08/13 12:39:50;;;;;;;5.10;4.70;;;34.70;92.30;;;;;;5012393;28;20210;-72